createdAt,value
2019-04-25T00:00:43.163Z,100867.11
2019-04-25T00:03:12.270Z,100865.28
2019-04-25T00:05:40.510Z,100862.45
2019-04-25T00:08:09.523Z,100862.45
2019-04-25T00:10:37.785Z,100856.12
2019-04-25T00:13:05.916Z,100848.19
2019-04-25T00:15:33.547Z,100865.27
2019-04-25T00:18:02.340Z,100868.07
2019-04-25T00:20:31.872Z,100865.38
2019-04-25T00:23:07.373Z,100863.66
2019-04-25T00:25:52.702Z,100859.12
2019-04-25T00:28:21.646Z,100861.13
2019-04-25T00:30:49.598Z,100866.13
2019-04-25T00:33:17.715Z,100868.83
2019-04-25T00:35:45.773Z,100868.83
2019-04-25T00:38:15.421Z,100843.14
2019-04-25T00:40:43.941Z,100868.09
2019-04-25T00:43:12.577Z,100863.34
2019-04-25T00:45:41.506Z,100845.98
2019-04-25T00:48:09.384Z,100859.11
2019-04-25T00:50:37.020Z,100838.77
2019-04-25T00:53:04.497Z,100838.77
2019-04-25T00:55:31.744Z,100862.97
2019-04-25T00:58:01.385Z,100861.30
2019-04-25T01:00:47.439Z,100861.30
2019-04-25T01:03:21.525Z,100858.30
2019-04-25T01:05:52.423Z,100860.55
2019-04-25T01:08:21.893Z,100850.34
2019-04-25T01:10:50.521Z,100857.26
2019-04-25T01:13:18.841Z,100854.61
2019-04-25T01:15:47.363Z,100854.73
2019-04-25T01:18:14.872Z,100860.70
2019-04-25T01:20:43.461Z,100856.11
2019-04-25T01:23:11.161Z,100854.38
2019-04-25T01:25:42.495Z,100853.50
2019-04-25T01:28:08.286Z,100854.52
2019-04-25T01:30:35.784Z,100858.59
2019-04-25T01:33:04.235Z,100857.80
2019-04-25T01:35:39.241Z,100852.98
2019-04-25T01:38:11.226Z,100855.09
2019-04-25T01:40:40.747Z,100856.95
2019-04-25T01:43:13.782Z,100850.77
2019-04-25T01:45:41.467Z,100855.00
2019-04-25T01:48:08.859Z,100855.05
2019-04-25T01:50:36.317Z,100854.91
2019-04-25T01:53:03.875Z,100854.64
2019-04-25T01:55:31.434Z,100852.84
2019-04-25T01:57:59.848Z,100855.05
2019-04-25T02:00:29.322Z,100856.50
2019-04-25T02:02:56.811Z,100859.28
2019-04-25T02:05:24.428Z,100856.67
2019-04-25T02:07:52.961Z,100863.66
2019-04-25T02:10:23.394Z,100857.30
2019-04-25T02:12:55.154Z,100853.49
2019-04-25T02:15:23.804Z,100851.49
2019-04-25T02:17:53.513Z,100853.22
2019-04-25T02:20:22.013Z,100851.33
2019-04-25T02:22:52.149Z,100851.09
2019-04-25T02:25:19.777Z,100847.59
2019-04-25T02:27:47.151Z,100852.70
2019-04-25T02:30:16.205Z,100853.63
2019-04-25T02:32:44.700Z,100844.11
2019-04-25T02:35:14.203Z,100853.55
2019-04-25T02:37:41.473Z,100845.44
2019-04-25T02:40:13.971Z,100850.61
2019-04-25T02:42:41.034Z,100848.61
2019-04-25T02:45:11.257Z,100848.33
2019-04-25T02:47:46.424Z,100856.38
2019-04-25T02:50:15.568Z,100850.89
2019-04-25T02:52:44.628Z,100843.19
2019-04-25T02:55:29.614Z,100846.34
2019-04-25T02:57:41.793Z,100841.94
2019-04-25T03:00:18.568Z,100842.70
2019-04-25T03:02:46.255Z,100845.39
2019-04-25T03:05:14.382Z,100845.79
2019-04-25T03:07:44.563Z,100846.31
2019-04-25T03:10:14.658Z,100843.41
2019-04-25T03:12:41.975Z,100852.27
2019-04-25T03:15:10.429Z,100836.64
2019-04-25T03:17:38.185Z,100845.17
2019-04-25T03:20:24.675Z,100836.31
2019-04-25T03:22:54.758Z,100838.56
2019-04-25T03:25:24.776Z,100840.77
2019-04-25T03:27:54.106Z,100838.64
2019-04-25T03:30:21.947Z,100837.31
2019-04-25T03:32:51.489Z,100844.00
2019-04-25T03:35:20.682Z,100839.41
2019-04-25T03:37:48.121Z,100836.47
2019-04-25T03:40:15.268Z,100839.66
2019-04-25T03:42:43.934Z,100843.20
2019-04-25T03:45:11.562Z,100839.00
2019-04-25T03:47:38.938Z,100843.02
2019-04-25T03:50:07.262Z,100842.80
2019-04-25T03:52:35.528Z,100832.90
2019-04-25T03:55:05.126Z,100840.00
2019-04-25T03:57:33.818Z,100841.25
2019-04-25T04:00:01.328Z,100848.45
2019-04-25T04:02:28.637Z,100840.84
2019-04-25T04:04:56.123Z,100842.75
2019-04-25T04:07:23.856Z,100845.33
2019-04-25T04:09:51.384Z,100843.53
2019-04-25T04:12:18.646Z,100850.77
2019-04-25T04:14:45.923Z,100857.94
2019-04-25T04:17:21.184Z,100862.16
2019-04-25T04:19:56.281Z,100864.66
2019-04-25T04:22:25.671Z,100886.02
2019-04-25T04:24:54.692Z,100888.48
2019-04-25T04:27:23.868Z,100897.28
2019-04-25T04:29:51.360Z,100908.01
2019-04-25T04:32:19.022Z,100914.38
2019-04-25T04:34:46.290Z,100922.94
2019-04-25T04:37:14.803Z,100922.05
2019-04-25T04:39:43.738Z,100920.45
2019-04-25T04:42:11.676Z,100909.52
2019-04-25T04:44:39.042Z,100911.89
2019-04-25T04:47:06.489Z,100903.47
2019-04-25T04:49:34.800Z,100896.00
2019-04-25T04:52:06.083Z,100886.52
2019-04-25T04:54:32.081Z,100888.39
2019-04-25T04:56:59.646Z,100858.39
2019-04-25T04:59:27.034Z,100844.83
2019-04-25T05:02:14.232Z,100844.83
2019-04-25T05:04:54.275Z,100859.12
2019-04-25T05:07:23.734Z,100866.86
2019-04-25T05:09:53.525Z,100871.75
2019-04-25T05:12:21.648Z,100873.77
2019-04-25T05:14:49.127Z,100865.41
2019-04-25T05:17:17.704Z,100865.58
2019-04-25T05:19:45.365Z,100871.05
2019-04-25T05:22:14.538Z,100865.71
2019-04-25T05:24:43.758Z,100865.58
2019-04-25T05:27:10.933Z,100864.86
2019-04-25T05:29:38.836Z,100868.44
2019-04-25T05:32:06.583Z,100881.98
2019-04-25T05:34:35.364Z,100878.73
2019-04-25T05:37:03.863Z,100892.63
2019-04-25T05:39:33.483Z,100884.44
2019-04-25T05:42:11.896Z,100898.98
2019-04-25T05:44:39.821Z,100890.23
2019-04-25T05:47:08.200Z,100890.87
2019-04-25T05:49:35.481Z,100904.42
2019-04-25T05:52:04.044Z,100896.77
2019-04-25T05:54:31.406Z,100893.03
2019-04-25T05:56:58.811Z,100898.93
2019-04-25T05:59:26.928Z,100898.73
2019-04-25T06:01:54.593Z,100898.48
2019-04-25T06:04:24.479Z,100885.88
2019-04-25T06:06:53.040Z,100886.06
2019-04-25T06:09:24.062Z,100892.16
2019-04-25T06:11:54.200Z,100894.98
2019-04-25T06:14:23.674Z,100897.66
2019-04-25T06:16:53.656Z,100897.71
2019-04-25T06:19:40.170Z,100900.61
2019-04-25T06:22:09.466Z,100909.57
2019-04-25T06:24:44.513Z,100907.59
2019-04-25T06:27:14.314Z,100910.03
2019-04-25T06:29:43.184Z,100906.66
2019-04-25T06:32:10.835Z,100907.48
2019-04-25T06:34:38.278Z,100900.42
2019-04-25T06:37:06.212Z,100892.84
2019-04-25T06:39:34.027Z,100907.50
2019-04-25T06:42:01.628Z,100908.45
2019-04-25T06:44:30.802Z,100897.05
2019-04-25T06:47:08.799Z,100898.66
2019-04-25T06:49:37.794Z,100910.86
2019-04-25T06:52:05.695Z,100893.33
2019-04-25T06:54:35.132Z,100902.17
2019-04-25T06:57:04.515Z,100895.02
2019-04-25T06:59:34.004Z,100913.83
2019-04-25T07:02:01.459Z,100906.97
2019-04-25T07:04:29.241Z,100908.59
2019-04-25T07:06:56.547Z,100904.39
2019-04-25T07:09:27.227Z,100907.16
2019-04-25T07:11:53.979Z,100894.52
2019-04-25T07:14:21.440Z,100898.91
2019-04-25T07:16:48.830Z,100898.69
2019-04-25T07:19:17.572Z,100903.41
2019-04-25T07:21:46.043Z,100905.81
2019-04-25T07:24:14.529Z,100896.12
2019-04-25T07:26:44.773Z,100894.12
2019-04-25T07:29:17.040Z,100897.55
2019-04-25T07:31:49.386Z,100894.84
2019-04-25T07:34:21.794Z,100904.09
2019-04-25T07:36:49.715Z,100897.90
2019-04-25T07:39:17.503Z,100900.21
2019-04-25T07:41:45.256Z,100897.20
2019-04-25T07:44:14.551Z,100896.45
2019-04-25T07:46:43.375Z,100916.03
2019-04-25T07:49:11.014Z,100890.58
2019-04-25T07:51:38.461Z,100890.78
2019-04-25T07:54:06.233Z,100890.55
2019-04-25T07:56:35.540Z,100902.88
2019-04-25T07:59:06.125Z,100897.59
2019-04-25T08:01:37.300Z,100893.69
2019-04-25T08:04:04.504Z,100888.08
2019-04-25T08:06:33.408Z,100889.23
2019-04-25T08:09:01.290Z,100900.33
2019-04-25T08:11:30.660Z,100896.96
2019-04-25T08:14:16.512Z,100902.91
2019-04-25T08:16:46.058Z,100905.17
2019-04-25T08:19:13.688Z,100909.58
2019-04-25T08:21:41.152Z,100899.48
2019-04-25T08:24:09.119Z,100905.31
2019-04-25T08:26:38.178Z,100898.02
2019-04-25T08:29:06.026Z,100904.64
2019-04-25T08:31:34.881Z,100904.91
2019-04-25T08:34:03.602Z,100915.11
2019-04-25T08:36:31.240Z,100908.24
2019-04-25T08:38:59.210Z,100907.90
2019-04-25T08:41:26.606Z,100912.98
2019-04-25T08:43:54.534Z,100912.51
2019-04-25T08:46:23.541Z,100903.81
2019-04-25T08:49:04.724Z,100903.27
2019-04-25T08:51:36.233Z,100900.89
2019-04-25T08:54:23.626Z,100893.78
2019-04-25T08:56:53.190Z,100897.40
2019-04-25T08:59:42.401Z,100902.09
2019-04-25T09:02:23.559Z,100895.15
2019-04-25T09:05:10.237Z,100904.44
2019-04-25T09:07:39.008Z,100907.34
2019-04-25T09:10:07.214Z,100889.04
2019-04-25T09:12:35.514Z,100881.48
2019-04-25T09:15:04.354Z,100893.97
2019-04-25T09:17:35.494Z,100882.05
2019-04-25T09:20:03.614Z,100890.86
2019-04-25T09:22:31.638Z,100888.15
2019-04-25T09:25:00.368Z,100910.06
2019-04-25T09:27:28.321Z,100889.36
2019-04-25T09:29:55.677Z,100892.11
2019-04-25T09:32:23.842Z,100904.20
2019-04-25T09:34:52.620Z,100905.50
2019-04-25T09:37:20.665Z,100896.59
2019-04-25T09:39:53.756Z,100899.58
2019-04-25T09:42:23.788Z,100897.66
2019-04-25T09:45:03.783Z,100906.03
2019-04-25T09:47:31.359Z,100901.88
2019-04-25T09:50:04.163Z,100905.80
2019-04-25T09:52:31.698Z,100920.95
2019-04-25T09:55:01.075Z,100902.28
2019-04-25T09:57:39.508Z,100902.50
2019-04-25T10:00:09.695Z,100895.16
2019-04-25T10:02:38.160Z,100887.97
2019-04-25T10:05:05.799Z,100894.80
2019-04-25T10:07:33.085Z,100897.23
2019-04-25T10:10:00.861Z,100886.86
2019-04-25T10:12:28.340Z,100883.29
2019-04-25T10:15:43.019Z,100889.70
2019-04-25T10:18:14.112Z,100880.85
2019-04-25T10:20:41.181Z,100893.44
2019-04-25T10:23:10.636Z,100882.41
2019-04-25T10:25:39.578Z,100878.92
2019-04-25T10:28:07.281Z,100882.27
2019-04-25T10:30:35.795Z,100885.48
2019-04-25T10:33:04.059Z,100886.34
2019-04-25T10:35:34.237Z,100870.92
2019-04-25T10:38:03.534Z,100873.68
2019-04-25T10:40:31.790Z,100868.73
2019-04-25T10:42:59.756Z,100875.44
2019-04-25T10:45:27.249Z,100883.04
2019-04-25T10:47:56.465Z,100886.23
2019-04-25T10:50:24.004Z,100884.72
2019-04-25T10:52:52.738Z,100887.78
2019-04-25T10:55:23.286Z,100887.19
2019-04-25T10:57:51.080Z,100879.31
2019-04-25T11:00:24.320Z,100881.98
2019-04-25T11:02:53.810Z,100881.45
2019-04-25T11:05:21.643Z,100866.77
2019-04-25T11:07:49.112Z,100866.08
2019-04-25T11:10:17.833Z,100882.36
2019-04-25T11:12:47.170Z,100862.12
2019-04-25T11:15:15.040Z,100878.12
2019-04-25T11:17:45.800Z,100868.27
2019-04-25T11:20:23.962Z,100863.84
2019-04-25T11:22:52.086Z,100866.42
2019-04-25T11:25:24.037Z,100862.81
2019-04-25T11:27:54.136Z,100850.03
2019-04-25T11:30:25.629Z,100853.83
2019-04-25T11:32:54.734Z,100856.61
2019-04-25T11:35:24.105Z,100854.77
2019-04-25T11:37:54.842Z,100860.72
2019-04-25T11:40:27.921Z,100859.12
2019-04-25T11:42:55.507Z,100858.80
2019-04-25T11:45:23.119Z,100851.57
2019-04-25T11:47:50.909Z,100863.30
2019-04-25T11:50:18.757Z,100858.40
2019-04-25T11:52:46.919Z,100861.20
2019-04-25T11:55:14.927Z,100853.72
2019-04-25T11:57:48.277Z,100861.45
2019-04-25T12:00:21.935Z,100869.14
2019-04-25T12:02:44.050Z,100896.45
2019-04-25T12:05:11.348Z,100861.78
2019-04-25T12:07:38.575Z,100851.40
2019-04-25T12:10:08.171Z,100852.70
2019-04-25T12:12:37.170Z,100876.01
2019-04-25T12:15:04.909Z,100849.41
2019-04-25T12:17:35.169Z,100864.22
2019-04-25T12:20:03.919Z,100855.99
2019-04-25T12:22:31.441Z,100858.85
2019-04-25T12:24:58.836Z,100847.41
2019-04-25T12:27:26.100Z,100847.18
2019-04-25T12:29:54.443Z,100872.70
2019-04-25T12:32:22.049Z,100855.45
2019-04-25T12:34:49.569Z,100863.70
2019-04-25T12:37:17.269Z,100858.22
2019-04-25T12:39:46.093Z,100850.41
2019-04-25T12:42:14.557Z,100848.28
2019-04-25T12:44:56.119Z,100835.67
2019-04-25T12:47:31.479Z,100858.42
2019-04-25T12:49:58.963Z,100843.48
2019-04-25T12:52:26.277Z,100845.70
2019-04-25T12:54:57.207Z,100850.05
2019-04-25T12:57:24.078Z,100849.39
2019-04-25T12:59:51.799Z,100840.16
2019-04-25T13:02:19.186Z,100846.22
2019-04-25T13:04:47.774Z,100864.30
2019-04-25T13:07:15.611Z,100865.42
2019-04-25T13:09:43.096Z,100847.05
2019-04-25T13:12:13.449Z,100846.72
2019-04-25T13:14:40.913Z,100843.00
2019-04-25T13:17:09.318Z,100862.24
2019-04-25T13:19:38.078Z,100853.34
2019-04-25T13:22:06.038Z,100856.79
2019-04-25T13:24:33.710Z,100844.81
2019-04-25T13:27:06.133Z,100842.75
2019-04-25T13:29:53.231Z,100852.02
2019-04-25T13:32:34.996Z,100841.66
2019-04-25T13:35:04.807Z,100839.42
2019-04-25T13:37:32.104Z,100842.98
2019-04-25T13:40:00.573Z,100828.83
2019-04-25T13:42:28.104Z,100841.66
2019-04-25T13:44:56.579Z,100842.63
2019-04-25T13:47:29.268Z,100839.00
2019-04-25T13:49:56.788Z,100840.91
2019-04-25T13:52:25.037Z,100833.86
2019-04-25T13:54:53.849Z,100836.23
2019-04-25T13:57:21.642Z,100830.19
2019-04-25T13:59:49.113Z,100825.08
2019-04-25T14:02:18.353Z,100832.33
2019-04-25T14:04:45.861Z,100834.37
2019-04-25T14:07:13.632Z,100831.13
2019-04-25T14:09:41.096Z,100840.78
2019-04-25T14:12:08.728Z,100830.33
2019-04-25T14:14:36.206Z,100827.97
2019-04-25T14:17:21.639Z,100831.72
2019-04-25T14:19:54.552Z,100841.83
2019-04-25T14:22:22.487Z,100845.91
2019-04-25T14:24:51.112Z,100840.58
2019-04-25T14:27:18.934Z,100832.67
2019-04-25T14:29:46.427Z,100836.53
2019-04-25T14:32:15.071Z,100832.80
2019-04-25T14:34:43.269Z,100834.14
2019-04-25T14:37:11.093Z,100827.80
2019-04-25T14:39:39.238Z,100833.78
2019-04-25T14:42:06.551Z,100846.09
2019-04-25T14:44:33.955Z,100838.27
2019-04-25T14:47:03.961Z,100836.70
2019-04-25T14:49:31.418Z,100830.75
2019-04-25T14:51:59.773Z,100833.02
2019-04-25T14:54:36.118Z,100829.78
2019-04-25T14:57:15.414Z,100825.27
2019-04-25T14:59:42.614Z,100825.92
2019-04-25T15:02:10.214Z,100833.26
2019-04-25T15:04:37.613Z,100828.02
2019-04-25T15:07:05.237Z,100827.53
2019-04-25T15:09:33.057Z,100827.55
2019-04-25T15:12:00.458Z,100823.63
2019-04-25T15:14:28.130Z,100829.46
2019-04-25T15:16:55.881Z,100829.84
2019-04-25T15:19:24.145Z,100834.38
2019-04-25T15:21:52.443Z,100826.02
2019-04-25T15:24:20.179Z,100819.33
2019-04-25T15:26:47.737Z,100825.64
2019-04-25T15:29:15.428Z,100827.52
2019-04-25T15:31:55.182Z,100821.35
2019-04-25T15:34:12.761Z,100831.09
2019-04-25T15:36:42.133Z,100827.20
2019-04-25T15:39:28.911Z,100826.00
2019-04-25T15:42:00.984Z,100823.21
2019-04-25T15:44:46.438Z,100826.16
2019-04-25T15:47:15.556Z,100829.33
2019-04-25T15:49:42.991Z,100823.59
2019-04-25T15:52:11.219Z,100825.12
2019-04-25T15:54:38.717Z,100826.53
2019-04-25T15:57:07.230Z,100823.21
2019-04-25T15:59:34.944Z,100825.88
2019-04-25T16:02:08.332Z,100824.67
2019-04-25T16:04:35.623Z,100824.86
2019-04-25T16:07:04.512Z,100829.04
2019-04-25T16:09:33.229Z,100826.23
2019-04-25T16:12:00.815Z,100828.98
2019-04-25T16:14:28.641Z,100833.50
2019-04-25T16:16:56.504Z,100831.68
2019-04-25T16:19:24.396Z,100830.08
2019-04-25T16:21:52.030Z,100826.51
2019-04-25T16:24:19.992Z,100833.50
2019-04-25T16:26:47.525Z,100826.63
2019-04-25T16:29:15.886Z,100831.28
2019-04-25T16:31:44.012Z,100831.66
2019-04-25T16:34:11.840Z,100833.47
2019-04-25T16:36:39.720Z,100834.82
2019-04-25T16:39:09.185Z,100828.08
2019-04-25T16:41:40.314Z,100827.82
2019-04-25T18:01:21.398Z,100861.72
2019-04-25T18:03:49.111Z,100858.38
2019-04-25T18:06:17.168Z,100863.52
2019-04-25T18:08:44.686Z,100870.80
2019-04-25T18:11:12.552Z,100874.33
2019-04-25T18:13:41.049Z,100874.12
2019-04-25T18:16:15.076Z,100879.06
2019-04-25T18:18:53.603Z,100881.89
2019-04-25T18:21:21.149Z,100885.75
2019-04-25T18:24:02.180Z,100880.25
2019-04-25T18:26:35.251Z,100885.38
2019-04-25T18:29:04.675Z,100890.86
2019-04-25T18:31:31.986Z,100881.03
2019-04-25T18:34:01.244Z,100889.72
2019-04-25T18:36:30.567Z,100889.17
2019-04-25T18:39:14.408Z,100895.47
2019-04-25T18:41:44.060Z,100894.89
2019-04-25T18:44:13.277Z,100890.45
2019-04-25T18:46:45.585Z,100896.34
2019-04-25T18:49:13.003Z,100892.03
2019-04-25T18:51:40.704Z,100897.31
2019-04-25T18:54:16.225Z,100899.84
2019-04-25T18:57:00.371Z,100903.93
2019-04-25T18:59:35.456Z,100905.53
2019-04-25T19:02:21.456Z,100906.70
2019-04-25T19:04:54.245Z,100907.87
2019-04-25T19:07:23.052Z,100906.30
2019-04-25T19:09:51.273Z,100908.73
2019-04-25T19:12:19.667Z,100914.87
2019-04-25T19:14:47.405Z,100906.45
2019-04-25T19:17:15.487Z,100914.17
2019-04-25T19:19:43.634Z,100916.04
2019-04-25T19:22:11.148Z,100915.60
2019-04-25T19:24:40.371Z,100916.31
2019-04-25T19:27:08.264Z,100907.95
2019-04-25T19:29:35.740Z,100912.13
2019-04-25T19:32:03.148Z,100910.02
2019-04-25T19:34:30.599Z,100908.97
2019-04-25T19:36:58.664Z,100910.85
2019-04-25T19:39:28.153Z,100907.46
2019-04-25T19:42:09.760Z,100910.98
2019-04-25T19:44:37.629Z,100914.20
2019-04-25T19:47:04.803Z,100912.56
2019-04-25T19:49:32.824Z,100915.70
2019-04-25T19:52:00.148Z,100909.84
2019-04-25T19:54:27.882Z,100913.62
2019-04-25T19:56:56.515Z,100908.37
2019-04-25T19:59:24.143Z,100907.42
2019-04-25T20:01:53.945Z,100913.31
2019-04-25T20:04:26.691Z,100909.30
2019-04-25T20:07:11.452Z,100907.27
2019-04-25T20:09:57.660Z,100907.35
2019-04-25T20:12:29.725Z,100906.47
2019-04-25T20:14:57.604Z,100908.84
2019-04-25T20:17:25.063Z,100911.56
2019-04-25T20:19:52.666Z,100908.80
2019-04-25T20:22:20.086Z,100915.56
2019-04-25T20:24:48.352Z,100909.24
2019-04-25T20:27:16.101Z,100903.45
2019-04-25T20:29:45.159Z,100906.73
2019-04-25T20:32:12.785Z,100903.50
2019-04-25T20:34:40.692Z,100904.66
2019-04-25T20:37:08.196Z,100904.52
2019-04-25T20:39:36.273Z,100903.84
2019-04-25T20:42:03.619Z,100902.60
2019-04-25T20:44:31.027Z,100909.39
2019-04-25T20:46:58.617Z,100907.72
2019-04-25T20:49:26.867Z,100904.38
2019-04-25T20:51:54.737Z,100901.78
2019-04-25T20:54:22.098Z,100906.31
2019-04-25T20:56:49.457Z,100907.16
2019-04-25T20:59:17.368Z,100909.83
2019-04-25T21:01:44.723Z,100910.36
2019-04-25T21:04:31.450Z,100903.47
2019-04-25T21:06:59.455Z,100910.52
2019-04-25T21:09:26.816Z,100907.55
2019-04-25T21:11:54.338Z,100906.89
2019-04-25T21:14:23.674Z,100912.45
2019-04-25T21:16:53.872Z,100903.41
2019-04-25T21:19:35.612Z,100905.42
2019-04-25T21:22:03.396Z,100912.06
2019-04-25T21:24:31.254Z,100909.92
2019-04-25T21:27:00.048Z,100907.64
2019-04-25T21:29:28.422Z,100911.55
2019-04-25T21:31:56.785Z,100904.44
2019-04-25T21:34:26.603Z,100909.51
2019-04-25T21:36:53.564Z,100909.78
2019-04-25T21:39:26.336Z,100913.35
2019-04-25T21:41:55.850Z,100912.48
2019-04-25T21:44:24.562Z,100909.28
2019-04-25T21:46:52.455Z,100913.35
2019-04-25T21:49:21.524Z,100908.50
2019-04-25T21:51:50.494Z,100916.00
2019-04-25T21:54:17.899Z,100907.71
2019-04-25T21:56:46.053Z,100907.39
2019-04-25T21:59:14.082Z,100908.95
2019-04-25T22:01:42.994Z,100908.72
2019-04-25T22:04:10.565Z,100913.98
2019-04-25T22:06:39.916Z,100909.46
2019-04-25T22:09:10.209Z,100907.59
2019-04-25T22:11:37.548Z,100914.44
2019-04-25T22:14:05.959Z,100902.72
2019-04-25T22:16:33.473Z,100908.80
2019-04-25T22:19:02.023Z,100900.68
2019-04-25T22:21:37.951Z,100907.85
2019-04-25T22:24:08.841Z,100910.31
2019-04-25T22:26:28.759Z,100907.17
2019-04-25T22:28:57.651Z,100902.20
2019-04-25T22:31:28.776Z,100903.19
2019-04-25T22:34:04.016Z,100896.34
2019-04-25T22:36:32.065Z,100897.96
2019-04-25T22:39:08.967Z,100902.24
2019-04-25T22:41:39.735Z,100905.19
2019-04-25T22:44:10.060Z,100908.79
2019-04-25T22:46:37.452Z,100898.48
2019-04-25T22:49:05.603Z,100904.22
2019-04-25T22:51:32.747Z,100894.70
2019-04-25T22:53:59.727Z,100895.59
2019-04-25T22:56:26.635Z,100894.55
2019-04-25T22:58:53.735Z,100895.45
2019-04-25T23:01:23.827Z,100898.19
2019-04-25T23:03:58.356Z,100900.02
2019-04-25T23:06:26.825Z,100901.30
2019-04-25T23:08:53.819Z,100895.48
2019-04-25T23:11:20.470Z,100896.97
2019-04-25T23:13:47.565Z,100894.31
2019-04-25T23:16:14.882Z,100891.83
2019-04-25T23:18:41.848Z,100886.20
2019-04-25T23:21:08.908Z,100884.79
2019-04-25T23:23:35.660Z,100897.58
2019-04-25T23:26:10.383Z,100891.94
2019-04-25T23:28:39.677Z,100884.00
2019-04-25T23:31:11.257Z,100888.11
2019-04-25T23:33:39.025Z,100878.91
2019-04-25T23:36:06.971Z,100884.10
2019-04-25T23:38:35.582Z,100885.83
2019-04-25T23:41:03.129Z,100877.20
2019-04-25T23:43:30.058Z,100880.03
2019-04-25T23:45:57.123Z,100885.95
2019-04-25T23:48:24.867Z,100884.73
2019-04-25T23:50:53.625Z,100883.22
2019-04-25T23:53:20.399Z,100878.80
2019-04-25T23:55:47.234Z,100878.97
2019-04-25T23:58:14.193Z,100875.32
